Time;durP1;ratioP1;P1;durP2;ratioP2;P2;SDS_P1;SDS_P2;PMS_P1;PMS_P2;Temp;Humidity;BMP_temperature;BMP_pressure;BME280_temperature;BME280_humidity;BME280_pressure;Samples;Min_cycle;Max_cycle;Signal;HPM_P1;HPM_P2
2023/07/22 00:02:13;;;;;;;1.00;0.80;;;9.80;99.90;;;;;;5074383;28;20287;-64
2023/07/22 00:04:39;;;;;;;0.50;0.50;;;9.80;99.90;;;;;;5074204;28;20204;-64
2023/07/22 00:07:05;;;;;;;0.73;0.73;;;9.80;99.90;;;;;;5074484;28;20235;-65
2023/07/22 00:09:34;;;;;;;9.52;1.13;;;9.70;99.90;;;;;;5073957;28;20288;-65
2023/07/22 00:11:59;;;;;;;0.60;0.60;;;9.70;99.90;;;;;;5073060;28;20192;-64
2023/07/22 00:14:25;;;;;;;0.60;0.60;;;9.60;99.90;;;;;;5074113;28;20238;-65
2023/07/22 00:16:51;;;;;;;0.50;0.50;;;9.50;99.90;;;;;;5074145;28;20711;-65
2023/07/22 00:19:17;;;;;;;0.60;0.60;;;9.40;99.90;;;;;;5073848;28;20315;-65
2023/07/22 00:21:43;;;;;;;0.70;0.70;;;9.30;99.90;;;;;;5073776;28;20280;-65
2023/07/22 00:24:09;;;;;;;0.60;0.60;;;9.30;99.90;;;;;;5074405;28;20188;-65
2023/07/22 00:26:34;;;;;;;0.50;0.50;;;9.20;99.90;;;;;;5073841;28;20533;-65
2023/07/22 00:29:00;;;;;;;0.60;0.60;;;9.30;99.90;;;;;;5073943;28;20213;-65
2023/07/22 00:31:27;;;;;;;0.60;0.60;;;9.20;99.90;;;;;;5073905;28;20197;-65
2023/07/22 00:33:53;;;;;;;0.60;0.60;;;9.10;99.90;;;;;;5071906;28;20189;-65
2023/07/22 00:36:18;;;;;;;0.75;0.75;;;9.10;99.90;;;;;;5073864;28;20559;-65
2023/07/22 00:38:44;;;;;;;0.60;0.60;;;9.10;99.90;;;;;;5072409;28;20193;-65
2023/07/22 00:41:11;;;;;;;0.52;0.52;;;9.10;99.90;;;;;;5072417;28;20196;-64
2023/07/22 00:43:38;;;;;;;0.60;0.60;;;9.00;99.90;;;;;;5072508;28;20330;-65
2023/07/22 00:46:04;;;;;;;0.60;0.60;;;9.00;99.90;;;;;;5073719;28;20181;-65
2023/07/22 00:48:30;;;;;;;0.60;0.60;;;8.90;99.90;;;;;;5067083;28;20687;-65
2023/07/22 00:50:56;;;;;;;0.63;0.63;;;8.90;99.90;;;;;;5073382;28;20656;-64
2023/07/22 00:53:22;;;;;;;0.60;0.60;;;8.80;99.90;;;;;;5071682;28;20197;-65
2023/07/22 00:55:48;;;;;;;0.50;0.50;;;8.80;99.90;;;;;;5073462;28;20185;-64
2023/07/22 00:58:13;;;;;;;0.60;0.60;;;8.80;99.90;;;;;;5073540;28;20652;-64
2023/07/22 01:00:39;;;;;;;0.60;0.60;;;8.70;99.90;;;;;;5076479;22;20239;-69
2023/07/22 01:03:06;;;;;;;0.60;0.60;;;8.70;99.90;;;;;;5008931;28;20286;-67
2023/07/22 01:05:34;;;;;;;0.60;0.60;;;8.60;99.90;;;;;;5011790;28;20249;-69
2023/07/22 01:07:59;;;;;;;0.50;0.50;;;8.50;99.90;;;;;;5013493;28;20254;-67
2023/07/22 01:10:25;;;;;;;25.50;1.52;;;8.50;99.90;;;;;;5012924;28;20211;-67
2023/07/22 01:12:51;;;;;;;0.60;0.60;;;8.50;99.90;;;;;;5013335;28;20564;-67
2023/07/22 01:15:18;;;;;;;0.60;0.60;;;8.50;99.90;;;;;;5028535;28;20298;-67
2023/07/22 01:17:44;;;;;;;0.60;0.60;;;8.40;99.90;;;;;;5013085;28;20195;-68
2023/07/22 01:20:10;;;;;;;0.60;0.60;;;8.30;99.90;;;;;;5012738;28;20561;-70
2023/07/22 01:22:40;;;;;;;0.60;0.60;;;8.30;99.90;;;;;;5012808;28;20653;-67
2023/07/22 01:25:07;;;;;;;0.60;0.60;;;8.30;99.90;;;;;;5013535;28;20198;-67
2023/07/22 01:27:33;;;;;;;0.60;0.60;;;8.30;99.90;;;;;;5012666;28;20190;-67
2023/07/22 01:29:59;;;;;;;0.60;0.60;;;8.20;99.90;;;;;;5012954;28;20210;-68
2023/07/22 01:32:25;;;;;;;0.60;0.60;;;8.20;99.90;;;;;;5012952;28;20186;-67
2023/07/22 01:34:50;;;;;;;0.60;0.60;;;8.10;99.90;;;;;;5012780;28;20198;-68
2023/07/22 01:37:16;;;;;;;0.60;0.60;;;8.10;99.90;;;;;;5013393;28;20187;-67
2023/07/22 01:39:42;;;;;;;0.60;0.60;;;8.10;99.90;;;;;;5012677;28;20194;-67
2023/07/22 01:42:08;;;;;;;0.60;0.60;;;8.10;99.90;;;;;;5011251;28;20587;-68
2023/07/22 01:44:34;;;;;;;0.60;0.60;;;8.00;99.90;;;;;;5012223;28;20209;-68
2023/07/22 01:47:03;;;;;;;0.60;0.60;;;8.00;99.90;;;;;;5012752;28;20190;-67
2023/07/22 01:49:29;;;;;;;0.60;0.60;;;8.00;99.90;;;;;;5012320;28;20199;-68
2023/07/22 01:51:54;;;;;;;0.60;0.60;;;7.90;99.90;;;;;;5012735;28;20203;-69
2023/07/22 01:54:20;;;;;;;0.60;0.60;;;7.90;99.90;;;;;;5012256;28;20204;-68
2023/07/22 01:56:46;;;;;;;0.70;0.70;;;7.80;99.90;;;;;;5011199;28;20225;-68
2023/07/22 01:59:11;;;;;;;0.60;0.60;;;7.80;99.90;;;;;;5012466;28;20644;-69
2023/07/22 02:01:43;;;;;;;0.60;0.60;;;7.80;99.90;;;;;;5011208;28;20234;-68
2023/07/22 02:04:10;;;;;;;0.60;0.60;;;7.80;99.90;;;;;;5011504;28;20401;-68
2023/07/22 02:06:36;;;;;;;0.80;0.80;;;7.70;99.90;;;;;;5012210;28;20197;-69
2023/07/22 02:09:08;;;;;;;0.60;0.60;;;7.70;99.90;;;;;;5012247;28;20289;-70
2023/07/22 02:11:36;;;;;;;1.17;1.08;;;7.70;99.90;;;;;;5012096;28;20191;-68
2023/07/22 02:14:06;;;;;;;0.63;0.63;;;7.60;99.90;;;;;;5010888;28;20202;-70
2023/07/22 02:16:36;;;;;;;0.60;0.60;;;7.60;99.90;;;;;;5011971;28;20216;-70
2023/07/22 02:19:02;;;;;;;0.60;0.60;;;7.60;99.90;;;;;;5012121;28;20191;-69
2023/07/22 02:21:29;;;;;;;0.60;0.60;;;7.60;99.90;;;;;;5010317;28;20230;-70
2023/07/22 02:23:55;;;;;;;0.60;0.60;;;7.70;99.90;;;;;;5010391;28;20206;-69
2023/07/22 02:26:20;;;;;;;0.70;0.70;;;7.70;99.90;;;;;;5011846;28;20191;-70
2023/07/22 02:28:46;;;;;;;0.60;0.60;;;7.80;99.90;;;;;;5011887;28;20191;-70
2023/07/22 02:31:12;;;;;;;0.60;0.60;;;7.80;99.90;;;;;;5011978;28;20198;-70
2023/07/22 02:33:38;;;;;;;0.60;0.60;;;7.80;99.90;;;;;;5009995;28;20203;-69
2023/07/22 02:36:04;;;;;;;0.60;0.60;;;7.80;99.90;;;;;;5011764;28;20715;-70
2023/07/22 02:38:30;;;;;;;0.60;0.60;;;7.90;99.90;;;;;;5010542;28;20198;-69
2023/07/22 02:41:02;;;;;;;0.80;0.80;;;7.80;99.90;;;;;;5010214;28;20199;-68
2023/07/22 02:43:27;;;;;;;0.60;0.60;;;7.80;99.90;;;;;;5011419;28;20257;-69
2023/07/22 02:45:53;;;;;;;0.60;0.60;;;7.80;99.90;;;;;;5009933;28;20238;-69
2023/07/22 02:48:19;;;;;;;0.70;0.70;;;7.80;99.90;;;;;;5011162;28;20248;-69
2023/07/22 02:50:45;;;;;;;0.60;0.60;;;7.80;99.90;;;;;;5011429;28;20206;-68
2023/07/22 02:53:11;;;;;;;0.70;0.70;;;7.80;99.90;;;;;;5011617;28;20559;-69
2023/07/22 02:55:37;;;;;;;0.60;0.60;;;7.80;99.90;;;;;;5011312;28;20191;-68
2023/07/22 02:58:02;;;;;;;0.60;0.60;;;7.80;99.90;;;;;;5011429;28;20195;-68
2023/07/22 03:00:28;;;;;;;0.60;0.60;;;7.80;99.90;;;;;;5007491;28;20208;-68
2023/07/22 03:03:00;;;;;;;0.60;0.60;;;7.80;99.90;;;;;;4999802;28;20222;-69
2023/07/22 03:05:28;;;;;;;0.70;0.70;;;7.80;99.90;;;;;;5030998;28;20197;-68
2023/07/22 03:07:54;;;;;;;0.60;0.60;;;7.90;99.90;;;;;;5019231;28;20203;-68
2023/07/22 03:10:20;;;;;;;0.60;0.60;;;7.90;99.90;;;;;;5009631;28;20257;-68
2023/07/22 03:12:45;;;;;;;0.60;0.60;;;8.00;99.90;;;;;;5011294;28;20650;-67
2023/07/22 03:15:12;;;;;;;0.80;0.80;;;8.00;99.90;;;;;;5011073;28;20221;-68
2023/07/22 03:17:41;;;;;;;0.70;0.70;;;8.10;99.90;;;;;;5010985;28;20575;-68
2023/07/22 03:20:14;;;;;;;0.60;0.60;;;8.10;99.90;;;;;;5009953;28;20838;-68
2023/07/22 03:22:41;;;;;;;0.70;0.70;;;8.20;99.90;;;;;;5011099;28;20286;-69
2023/07/22 03:25:10;;;;;;;0.60;0.60;;;8.20;99.90;;;;;;5011040;28;20194;-69
2023/07/22 03:27:36;;;;;;;0.63;0.63;;;8.30;99.90;;;;;;5010827;28;20203;-69
2023/07/22 03:30:10;;;;;;;0.60;0.60;;;8.30;99.90;;;;;;5010844;28;20249;-70
2023/07/22 03:32:36;;;;;;;0.73;0.73;;;8.50;99.90;;;;;;5010299;28;20186;-69
2023/07/22 03:35:02;;;;;;;0.60;0.60;;;8.60;99.90;;;;;;5010832;28;20199;-68
2023/07/22 03:37:28;;;;;;;0.60;0.60;;;8.60;99.90;;;;;;5010491;28;20202;-67
2023/07/22 03:39:54;;;;;;;0.70;0.70;;;8.60;99.90;;;;;;5010896;28;20207;-69
2023/07/22 03:42:20;;;;;;;0.60;0.60;;;8.70;99.90;;;;;;5009610;28;20526;-70
2023/07/22 03:44:46;;;;;;;0.60;0.60;;;8.70;99.90;;;;;;5010971;28;20634;-70
2023/07/22 03:47:12;;;;;;;0.60;0.60;;;8.80;99.90;;;;;;5010882;28;20290;-69
2023/07/22 03:49:37;;;;;;;0.60;0.60;;;8.90;99.90;;;;;;5009157;28;20225;-70
2023/07/22 03:52:04;;;;;;;0.68;0.68;;;8.90;99.90;;;;;;5011100;28;20222;-69
2023/07/22 03:54:29;;;;;;;0.60;0.60;;;9.00;99.90;;;;;;5010790;28;20191;-69
2023/07/22 03:56:55;;;;;;;0.60;0.60;;;9.10;99.90;;;;;;5010627;28;20689;-69
2023/07/22 03:59:21;;;;;;;0.60;0.60;;;9.10;99.90;;;;;;5009383;28;20199;-68
2023/07/22 04:01:47;;;;;;;0.60;0.60;;;9.20;99.90;;;;;;5009160;28;20684;-69
2023/07/22 04:04:13;;;;;;;0.60;0.60;;;9.30;99.90;;;;;;5009352;28;20199;-69
2023/07/22 04:06:39;;;;;;;0.50;0.50;;;9.30;99.90;;;;;;5009108;28;20661;-69
2023/07/22 04:09:04;;;;;;;0.60;0.60;;;9.40;99.90;;;;;;5010717;28;20238;-69
2023/07/22 04:11:30;;;;;;;0.50;0.50;;;9.60;99.90;;;;;;5009869;28;20187;-69
2023/07/22 04:13:56;;;;;;;0.60;0.60;;;9.70;99.90;;;;;;5010587;28;20187;-70
2023/07/22 04:16:22;;;;;;;0.60;0.60;;;9.80;99.90;;;;;;5010438;28;20273;-69
2023/07/22 04:18:47;;;;;;;0.57;0.57;;;9.90;99.90;;;;;;5010642;28;20707;-69
2023/07/22 04:21:13;;;;;;;0.60;0.60;;;10.00;99.90;;;;;;5010773;28;20195;-69
2023/07/22 04:23:39;;;;;;;0.50;0.50;;;10.10;99.90;;;;;;5010111;28;20199;-69
2023/07/22 04:26:07;;;;;;;0.57;0.57;;;10.20;99.90;;;;;;5010532;28;20572;-69
2023/07/22 04:28:33;;;;;;;0.60;0.60;;;10.30;99.90;;;;;;5012705;28;20199;-69
2023/07/22 04:31:00;;;;;;;0.50;0.50;;;10.40;99.90;;;;;;5013954;28;20217;-70
2023/07/22 04:33:27;;;;;;;0.57;0.57;;;10.60;99.90;;;;;;5012507;28;20207;-69
2023/07/22 04:35:59;;;;;;;0.60;0.60;;;10.70;99.90;;;;;;5014077;28;20222;-69
2023/07/22 04:38:25;;;;;;;0.60;0.60;;;10.80;99.90;;;;;;5013934;28;20191;-69
2023/07/22 04:40:51;;;;;;;0.50;0.50;;;11.00;99.90;;;;;;5013928;28;20253;-69
2023/07/22 04:43:17;;;;;;;0.50;0.50;;;11.10;99.90;;;;;;5012653;28;20206;-70
2023/07/22 04:45:47;;;;;;;0.52;0.52;;;11.30;99.90;;;;;;5012473;28;20650;-68
2023/07/22 04:48:15;;;;;;;0.60;0.60;;;11.40;99.90;;;;;;5012394;28;20719;-68
2023/07/22 04:50:44;;;;;;;0.40;0.40;;;11.50;99.90;;;;;;5013559;28;20525;-70
2023/07/22 04:53:12;;;;;;;0.50;0.50;;;11.60;99.90;;;;;;5013713;28;20240;-69
2023/07/22 04:55:39;;;;;;;0.57;0.57;;;11.70;99.90;;;;;;5011381;28;20294;-70
2023/07/22 04:58:05;;;;;;;0.50;0.50;;;11.70;99.90;;;;;;5013766;28;20626;-68
2023/07/22 05:00:31;;;;;;;7.88;1.20;;;11.90;99.90;;;;;;5013072;28;20207;-69
2023/07/22 05:02:57;;;;;;;0.50;0.50;;;12.00;99.90;;;;;;5013297;28;20191;-69
2023/07/22 05:05:23;;;;;;;0.88;0.88;;;12.10;99.90;;;;;;5012139;28;20220;-69
2023/07/22 05:07:49;;;;;;;0.50;0.50;;;12.20;99.90;;;;;;5013426;28;20194;-68
2023/07/22 05:10:15;;;;;;;0.55;0.55;;;12.30;99.90;;;;;;5013134;28;20217;-69
2023/07/22 05:12:42;;;;;;;0.77;0.77;;;12.40;99.90;;;;;;5011828;28;20650;-69
2023/07/22 05:15:10;;;;;;;0.50;0.50;;;12.50;99.90;;;;;;5013265;28;20195;-69
2023/07/22 05:17:36;;;;;;;0.52;0.52;;;12.60;99.90;;;;;;5011628;28;20198;-69
2023/07/22 05:20:03;;;;;;;0.80;0.77;;;12.70;99.90;;;;;;5013158;28;20310;-69
2023/07/22 05:22:29;;;;;;;0.82;0.82;;;12.90;99.90;;;;;;5011394;28;20199;-70
2023/07/22 05:24:55;;;;;;;0.60;0.60;;;13.00;99.90;;;;;;5013245;28;20195;-69
2023/07/22 05:27:21;;;;;;;0.40;0.40;;;13.10;99.90;;;;;;5011592;28;20199;-70
2023/07/22 05:29:47;;;;;;;0.95;0.73;;;13.30;99.90;;;;;;5011329;28;20665;-69
2023/07/22 05:32:13;;;;;;;0.50;0.50;;;13.30;99.90;;;;;;5013294;28;20191;-69
2023/07/22 05:34:39;;;;;;;1.23;1.05;;;13.50;99.90;;;;;;5012409;28;20285;-70
2023/07/22 05:37:05;;;;;;;2.40;1.70;;;13.40;99.90;;;;;;5012792;28;20285;-70
2023/07/22 05:39:31;;;;;;;0.45;0.45;;;13.60;99.90;;;;;;5012648;28;20195;-70
2023/07/22 05:42:00;;;;;;;0.38;0.38;;;13.70;99.90;;;;;;5012667;28;20681;-70
2023/07/22 05:44:26;;;;;;;1.02;0.75;;;13.80;99.90;;;;;;5013064;28;20254;-70
2023/07/22 05:46:51;;;;;;;0.40;0.40;;;13.80;99.90;;;;;;5011301;28;20211;-69
2023/07/22 05:49:17;;;;;;;0.40;0.40;;;13.90;99.90;;;;;;5012587;28;20419;-70
2023/07/22 05:51:43;;;;;;;0.40;0.40;;;14.10;99.90;;;;;;5011251;28;20277;-71
2023/07/22 05:54:08;;;;;;;0.43;0.43;;;14.20;99.90;;;;;;5012745;28;20226;-70
2023/07/22 05:56:34;;;;;;;0.40;0.40;;;14.30;99.90;;;;;;5012406;28;20260;-71
2023/07/22 05:59:00;;;;;;;0.40;0.40;;;14.30;99.90;;;;;;5011164;28;20194;-72
2023/07/22 06:01:28;;;;;;;0.30;0.30;;;14.50;99.90;;;;;;5012130;28;20249;-70
2023/07/22 06:03:54;;;;;;;1.40;1.30;;;14.40;99.90;;;;;;5011100;28;20309;-70
2023/07/22 06:06:20;;;;;;;1.30;0.90;;;14.60;99.90;;;;;;5010735;28;20222;-70
2023/07/22 06:08:46;;;;;;;1.55;0.70;;;14.80;99.90;;;;;;5011155;28;20199;-71
2023/07/22 06:11:11;;;;;;;0.82;0.82;;;15.10;99.90;;;;;;5012282;28;20187;-70
2023/07/22 06:13:37;;;;;;;0.77;0.57;;;15.10;99.90;;;;;;5012003;28;20274;-70
2023/07/22 06:16:03;;;;;;;0.40;0.40;;;15.20;99.90;;;;;;5011700;28;20669;-71
2023/07/22 06:18:29;;;;;;;1.17;0.47;;;15.20;99.90;;;;;;5012126;28;20194;-70
2023/07/22 06:20:54;;;;;;;0.82;0.82;;;15.20;99.90;;;;;;5012088;28;20289;-70
2023/07/22 06:23:20;;;;;;;2.20;0.75;;;15.40;99.90;;;;;;5011706;28;20199;-71
2023/07/22 06:25:46;;;;;;;0.30;0.30;;;15.70;99.90;;;;;;5011903;28;20241;-70
2023/07/22 06:28:12;;;;;;;0.38;0.38;;;15.50;99.90;;;;;;5011954;28;20199;-70
2023/07/22 06:30:37;;;;;;;0.50;0.50;;;15.40;99.90;;;;;;5011723;28;20210;-71
2023/07/22 06:33:03;;;;;;;5.78;0.65;;;15.70;99.90;;;;;;5011885;28;20199;-71
2023/07/22 06:35:29;;;;;;;0.50;0.50;;;15.90;99.90;;;;;;5011693;28;20202;-71
2023/07/22 06:37:54;;;;;;;0.60;0.60;;;16.00;99.90;;;;;;5011733;28;20256;-70
2023/07/22 06:40:20;;;;;;;0.20;0.20;;;16.00;99.90;;;;;;5010334;28;20286;-71
2023/07/22 06:42:46;;;;;;;0.30;0.30;;;16.00;99.90;;;;;;5010440;28;20202;-70
2023/07/22 06:45:12;;;;;;;0.30;0.30;;;16.20;99.90;;;;;;5011677;28;20325;-69
2023/07/22 06:47:37;;;;;;;0.63;0.63;;;16.40;99.90;;;;;;5011329;28;20203;-69
2023/07/22 06:50:04;;;;;;;0.45;0.45;;;16.10;99.90;;;;;;5011028;28;20256;-69
2023/07/22 06:52:31;;;;;;;0.50;0.50;;;16.00;99.90;;;;;;5009720;28;20689;-68
2023/07/22 06:54:57;;;;;;;0.50;0.50;;;15.80;99.90;;;;;;5009577;28;20199;-69
2023/07/22 06:57:25;;;;;;;0.30;0.30;;;15.70;99.90;;;;;;5011256;28;20612;-69
2023/07/22 06:59:53;;;;;;;1.27;0.88;;;15.70;99.90;;;;;;5010175;28;20234;-69
2023/07/22 07:02:19;;;;;;;1.52;0.65;;;15.90;99.90;;;;;;5009528;28;20653;-71
2023/07/22 07:04:45;;;;;;;1.95;0.95;;;16.10;99.90;;;;;;5011497;28;20195;-69
2023/07/22 07:07:12;;;;;;;0.40;0.40;;;16.10;99.90;;;;;;5011300;28;20234;-67
2023/07/22 07:09:38;;;;;;;0.25;0.25;;;16.20;99.90;;;;;;5011289;28;20202;-68
2023/07/22 07:12:04;;;;;;;0.35;0.35;;;16.20;99.90;;;;;;5011183;28;20207;-69
2023/07/22 07:14:32;;;;;;;0.30;0.30;;;16.40;99.90;;;;;;5011051;28;20195;-69
2023/07/22 07:16:58;;;;;;;0.30;0.30;;;16.40;99.90;;;;;;5011328;28;20191;-69
2023/07/22 07:19:24;;;;;;;0.30;0.30;;;16.50;99.90;;;;;;5011194;28;20692;-69
2023/07/22 07:21:49;;;;;;;1.00;0.90;;;17.10;99.90;;;;;;5009112;28;20210;-69
2023/07/22 07:24:16;;;;;;;0.43;0.43;;;17.50;99.90;;;;;;5009975;28;20249;-68
2023/07/22 07:26:42;;;;;;;0.20;0.20;;;17.70;99.90;;;;;;5011331;28;20186;-73
2023/07/22 07:29:08;;;;;;;0.25;0.25;;;17.50;99.90;;;;;;5009910;28;20234;-76
2023/07/22 07:31:34;;;;;;;0.20;0.20;;;17.50;99.90;;;;;;5011203;28;20210;-72
2023/07/22 07:34:00;;;;;;;0.30;0.30;;;17.90;99.90;;;;;;5011153;28;20351;-74
2023/07/22 07:36:26;;;;;;;0.20;0.20;;;18.60;99.90;;;;;;5011096;28;20278;-73
2023/07/22 07:38:51;;;;;;;0.20;0.20;;;18.90;99.90;;;;;;5009753;28;20560;-73
2023/07/22 07:41:17;;;;;;;0.50;0.50;;;18.80;99.90;;;;;;5011338;28;20198;-74
2023/07/22 07:43:43;;;;;;;5.18;1.60;;;18.80;99.90;;;;;;5011513;28;20198;-75
2023/07/22 07:46:21;;;;;;;3.20;1.38;;;19.00;99.90;;;;;;5009833;28;20195;-74
2023/07/22 07:48:55;;;;;;;6.03;1.25;;;19.20;99.90;;;;;;5009610;28;20655;-75
2023/07/22 07:51:23;;;;;;;0.40;0.40;;;19.30;99.90;;;;;;5009998;28;20203;-75
2023/07/22 07:53:49;;;;;;;0.55;0.55;;;19.50;99.90;;;;;;5010392;28;20661;-77
2023/07/22 07:56:16;;;;;;;0.30;0.30;;;20.10;99.90;;;;;;5011465;28;20198;-75
2023/07/22 07:58:43;;;;;;;0.20;0.20;;;20.50;99.90;;;;;;5011367;28;20598;-75
2023/07/22 08:01:09;;;;;;;0.30;0.30;;;20.90;99.90;;;;;;5009364;28;20260;-76
2023/07/22 08:03:37;;;;;;;0.22;0.22;;;21.20;99.90;;;;;;5014925;28;20206;-76
2023/07/22 08:06:04;;;;;;;0.20;0.20;;;21.70;99.90;;;;;;5014624;28;20195;-76
2023/07/22 08:08:30;;;;;;;0.20;0.20;;;21.60;99.90;;;;;;5013060;28;20201;-73
2023/07/22 08:11:05;;;;;;;0.30;0.30;;;21.10;99.90;;;;;;5014161;28;20215;-71
2023/07/22 08:13:33;;;;;;;0.63;0.63;;;21.40;99.90;;;;;;5014477;28;20564;-71
2023/07/22 08:16:00;;;;;;;0.20;0.20;;;21.50;99.90;;;;;;5014691;28;20277;-73
2023/07/22 08:18:26;;;;;;;0.30;0.30;;;20.80;99.90;;;;;;5012788;28;20198;-74
2023/07/22 08:20:52;;;;;;;1.77;0.63;;;20.50;99.90;;;;;;5014328;28;20191;-75
2023/07/22 08:23:21;;;;;;;0.60;0.60;;;19.80;99.90;;;;;;5013404;28;20253;-74
2023/07/22 08:25:48;;;;;;;3.35;0.77;;;19.20;99.90;;;;;;5013729;28;20249;-74
2023/07/22 08:28:14;;;;;;;3.15;0.50;;;18.80;99.90;;;;;;5014642;28;20719;-74
2023/07/22 08:30:40;;;;;;;0.30;0.30;;;18.80;99.90;;;;;;5014539;28;20242;-74
2023/07/22 08:33:09;;;;;;;0.20;0.20;;;18.40;99.90;;;;;;5014494;28;20638;-73
2023/07/22 08:35:36;;;;;;;0.30;0.30;;;18.40;99.90;;;;;;5013895;28;20226;-74
2023/07/22 08:38:06;;;;;;;0.30;0.30;;;18.50;99.90;;;;;;5014043;28;20254;-73
2023/07/22 08:40:39;;;;;;;0.90;0.47;;;18.60;99.90;;;;;;5013912;28;20189;-73
2023/07/22 08:43:10;;;;;;;0.73;0.63;;;19.20;99.90;;;;;;5013104;28;20586;-75
2023/07/22 08:45:39;;;;;;;0.40;0.40;;;19.40;99.90;;;;;;5013821;28;20233;-73
2023/07/22 08:48:26;;;;;;;0.28;0.28;;;19.20;99.90;;;;;;5012715;28;20739;-74
2023/07/22 08:51:03;;;;;;;0.40;0.40;;;19.20;99.90;;;;;;5010316;28;20233;-73
2023/07/22 08:53:35;;;;;;;0.20;0.20;;;19.50;99.90;;;;;;5012481;28;20252;-73
2023/07/22 08:56:04;;;;;;;0.30;0.30;;;19.80;99.90;;;;;;5013764;28;20218;-73
2023/07/22 08:58:30;;;;;;;0.22;0.22;;;20.00;99.90;;;;;;5013467;28;20728;-74
2023/07/22 09:00:58;;;;;;;0.20;0.20;;;20.10;99.90;;;;;;5013347;28;20580;-73
2023/07/22 09:03:24;;;;;;;0.20;0.20;;;20.60;99.90;;;;;;5013490;28;20214;-73
2023/07/22 09:05:50;;;;;;;0.20;0.20;;;20.80;99.90;;;;;;5013638;28;20195;-73
2023/07/22 09:08:17;;;;;;;0.20;0.20;;;21.00;99.90;;;;;;5014230;28;20638;-74
2023/07/22 09:10:43;;;;;;;0.22;0.22;;;21.50;99.90;;;;;;5013679;28;20254;-73
2023/07/22 09:13:09;;;;;;;0.28;0.28;;;21.90;99.90;;;;;;5012384;28;20191;-74
2023/07/22 09:15:36;;;;;;;0.50;0.50;;;22.10;99.90;;;;;;5013127;28;20222;-73
2023/07/22 09:18:05;;;;;;;0.20;0.20;;;22.00;99.90;;;;;;5012438;28;20190;-74
2023/07/22 09:20:31;;;;;;;0.20;0.20;;;22.40;99.90;;;;;;5011677;28;20203;-75
2023/07/22 09:22:58;;;;;;;2.42;0.77;;;22.10;99.90;;;;;;5012320;28;20230;-73
2023/07/22 09:25:29;;;;;;;0.20;0.20;;;21.20;99.90;;;;;;5012950;28;20187;-73
2023/07/22 09:27:59;;;;;;;2.08;0.85;;;20.90;99.90;;;;;;5013259;28;20657;-73
2023/07/22 09:30:28;;;;;;;1.00;0.52;;;20.40;99.90;;;;;;5013028;28;20584;-74
2023/07/22 09:32:59;;;;;;;0.20;0.20;;;20.10;99.90;;;;;;5013139;28;20195;-73
2023/07/22 09:35:28;;;;;;;0.17;0.17;;;19.90;99.90;;;;;;5011453;28;20203;-74
2023/07/22 09:37:55;;;;;;;0.20;0.20;;;19.70;99.90;;;;;;5013170;28;20187;-74
2023/07/22 09:40:28;;;;;;;0.30;0.30;;;19.80;99.90;;;;;;5011755;28;20203;-73
2023/07/22 09:43:02;;;;;;;0.25;0.25;;;19.90;99.90;;;;;;4993531;28;20557;-73
2023/07/22 09:45:33;;;;;;;0.15;0.15;;;20.10;99.90;;;;;;4993256;28;20249;-73
2023/07/22 09:47:59;;;;;;;0.43;0.40;;;20.10;99.90;;;;;;5008015;28;20200;-74
2023/07/22 09:50:26;;;;;;;0.20;0.20;;;20.40;99.90;;;;;;4993090;28;20226;-74
2023/07/22 09:53:03;;;;;;;0.20;0.20;;;20.80;99.90;;;;;;4993154;28;20701;-71
2023/07/22 09:55:31;;;;;;;0.20;0.20;;;20.70;99.90;;;;;;4992932;28;20195;-74
2023/07/22 09:57:58;;;;;;;0.20;0.20;;;20.30;99.90;;;;;;5008056;28;20196;-73
2023/07/22 10:00:27;;;;;;;0.40;0.40;;;20.20;99.90;;;;;;5007805;28;20203;-73
2023/07/22 10:02:56;;;;;;;0.30;0.30;;;19.90;99.90;;;;;;4992651;28;20286;-73
2023/07/22 10:05:23;;;;;;;0.30;0.30;;;19.70;99.90;;;;;;4992804;28;20257;-73
2023/07/22 10:07:54;;;;;;;0.40;0.32;;;19.40;99.90;;;;;;4992818;28;20199;-73
2023/07/22 10:10:32;;;;;;;1.58;0.43;;;19.20;99.90;;;;;;4996283;28;20260;-74
2023/07/22 10:12:58;;;;;;;0.22;0.22;;;18.90;99.90;;;;;;4993024;28;20241;-73
2023/07/22 10:15:35;;;;;;;0.50;0.50;;;18.70;99.90;;;;;;4992488;28;20303;-73
2023/07/22 10:18:08;;;;;;;0.20;0.20;;;18.30;99.90;;;;;;4993958;28;20241;-73
2023/07/22 10:20:36;;;;;;;0.32;0.32;;;18.20;99.90;;;;;;5011986;28;20233;-73
2023/07/22 10:23:03;;;;;;;0.60;0.60;;;18.30;99.90;;;;;;5010846;28;20203;-73
2023/07/22 10:25:33;;;;;;;0.93;0.35;;;18.30;99.90;;;;;;5011621;28;20661;-73
2023/07/22 10:27:59;;;;;;;0.38;0.38;;;18.30;99.90;;;;;;5012051;28;20662;-73
2023/07/22 10:30:24;;;;;;;0.20;0.20;;;18.40;99.90;;;;;;5011428;28;20215;-72
2023/07/22 10:32:54;;;;;;;0.30;0.30;;;18.40;99.90;;;;;;5012379;28;20187;-73
2023/07/22 10:35:42;;;;;;;0.30;0.30;;;18.70;99.90;;;;;;5011942;28;20194;-73
2023/07/22 10:38:15;;;;;;;0.40;0.40;;;19.20;99.90;;;;;;5010161;28;20684;-70
2023/07/22 10:40:55;;;;;;;2.00;0.60;;;19.40;99.90;;;;;;5012036;28;20677;-71
2023/07/22 10:43:40;;;;;;;2.22;0.30;;;19.80;99.90;;;;;;5010414;28;20222;-72
2023/07/22 10:46:14;;;;;;;0.20;0.20;;;19.80;99.90;;;;;;5011254;28;20194;-71
2023/07/22 10:48:41;;;;;;;0.30;0.30;;;19.90;99.90;;;;;;5011317;28;20654;-72
2023/07/22 10:51:11;;;;;;;0.20;0.20;;;19.80;99.90;;;;;;5010283;28;20207;-71
2023/07/22 10:53:50;;;;;;;0.20;0.20;;;19.80;99.90;;;;;;5011709;28;20224;-73
2023/07/22 10:56:21;;;;;;;0.20;0.20;;;19.80;99.90;;;;;;5011603;28;20264;-73
2023/07/22 10:58:47;;;;;;;0.20;0.20;;;19.50;99.90;;;;;;5010381;28;20195;-72
2023/07/22 11:01:28;;;;;;;0.20;0.20;;;19.30;99.90;;;;;;5010241;28;20233;-72
2023/07/22 11:04:05;;;;;;;0.20;0.20;;;19.00;99.90;;;;;;5011593;28;20225;-73
2023/07/22 11:06:32;;;;;;;0.63;0.40;;;18.80;99.90;;;;;;5011104;28;20240;-72
2023/07/22 11:08:57;;;;;;;0.40;0.40;;;18.60;99.90;;;;;;5011253;28;20202;-73
2023/07/22 11:11:40;;;;;;;0.77;0.65;;;18.60;99.90;;;;;;5010144;28;20199;-72
2023/07/22 11:14:36;;;;;;;0.43;0.43;;;18.70;99.90;;;;;;5011574;28;20199;-73
2023/07/22 11:17:03;;;;;;;0.28;0.28;;;18.70;99.90;;;;;;4990187;28;20667;-71
2023/07/22 11:19:30;;;;;;;0.20;0.20;;;18.70;99.90;;;;;;4990359;28;20199;-72
2023/07/22 11:21:59;;;;;;;0.20;0.20;;;18.70;99.90;;;;;;4993820;28;20203;-73
2023/07/22 11:24:25;;;;;;;0.20;0.20;;;18.80;99.90;;;;;;5011209;28;20277;-73
2023/07/22 11:26:52;;;;;;;0.20;0.20;;;18.80;99.90;;;;;;5010062;28;20333;-73
2023/07/22 11:29:18;;;;;;;0.20;0.20;;;18.80;99.90;;;;;;5011072;28;20210;-72
2023/07/22 11:31:45;;;;;;;0.30;0.30;;;18.90;99.90;;;;;;5010040;28;20191;-72
2023/07/22 11:34:16;;;;;;;0.40;0.40;;;18.70;99.90;;;;;;5009678;28;20629;-73
2023/07/22 11:36:42;;;;;;;0.20;0.20;;;19.00;99.90;;;;;;5014068;28;20638;-72
2023/07/22 11:39:10;;;;;;;0.20;0.20;;;19.10;99.90;;;;;;5015315;28;20197;-72
2023/07/22 11:41:37;;;;;;;0.20;0.20;;;19.40;99.90;;;;;;5015179;28;20609;-72
2023/07/22 11:44:08;;;;;;;0.20;0.20;;;19.60;99.90;;;;;;5015275;28;20559;-73
2023/07/22 11:46:35;;;;;;;0.20;0.20;;;19.50;99.90;;;;;;5014885;28;20657;-72
2023/07/22 11:49:02;;;;;;;0.30;0.30;;;19.40;99.90;;;;;;5015007;28;20672;-70
2023/07/22 11:51:29;;;;;;;0.30;0.30;;;19.50;99.90;;;;;;5014854;28;20206;-72
2023/07/22 11:53:55;;;;;;;0.25;0.25;;;19.50;99.90;;;;;;5013715;28;20218;-72
2023/07/22 11:56:22;;;;;;;0.30;0.30;;;19.80;99.90;;;;;;5013581;28;20705;-72
2023/07/22 11:58:50;;;;;;;0.20;0.20;;;20.10;99.90;;;;;;5014278;28;20650;-71
2023/07/22 12:01:16;;;;;;;1.60;0.43;;;20.00;99.90;;;;;;5012930;28;20238;-72
2023/07/22 12:03:42;;;;;;;0.30;0.30;;;19.60;99.90;;;;;;5014128;28;20732;-70
2023/07/22 12:06:07;;;;;;;0.32;0.32;;;19.70;99.90;;;;;;5014779;28;20631;-70
2023/07/22 12:08:35;;;;;;;0.20;0.20;;;19.60;99.90;;;;;;5014638;28;20241;-70
2023/07/22 12:11:02;;;;;;;0.22;0.22;;;19.60;99.90;;;;;;5014458;28;20214;-72
2023/07/22 12:13:28;;;;;;;0.20;0.20;;;20.10;99.90;;;;;;5014602;28;20575;-72
2023/07/22 12:16:07;;;;;;;0.20;0.20;;;20.10;99.90;;;;;;5014352;28;20195;-74
2023/07/22 12:18:46;;;;;;;0.32;0.32;;;20.20;99.90;;;;;;5012904;28;20665;-73
2023/07/22 12:21:13;;;;;;;0.95;0.55;;;20.50;99.90;;;;;;5014250;28;20221;-70
2023/07/22 12:23:40;;;;;;;0.30;0.30;;;20.90;99.90;;;;;;5013745;28;20195;-72
2023/07/22 12:26:06;;;;;;;0.30;0.30;;;21.30;99.90;;;;;;5014939;28;20678;-70
2023/07/22 12:28:34;;;;;;;0.20;0.20;;;21.50;99.90;;;;;;5014459;28;20206;-71
2023/07/22 12:31:03;;;;;;;0.17;0.17;;;22.00;99.90;;;;;;5014073;28;20230;-71
2023/07/22 12:33:29;;;;;;;0.20;0.20;;;22.30;99.90;;;;;;5014009;28;20700;-72
2023/07/22 12:35:57;;;;;;;0.20;0.20;;;23.30;99.90;;;;;;5014227;28;20262;-72
2023/07/22 12:38:23;;;;;;;0.30;0.30;;;24.20;99.90;;;;;;5012550;28;20198;-71
2023/07/22 12:40:49;;;;;;;0.15;0.15;;;25.10;99.90;;;;;;5012826;28;20662;-71
2023/07/22 12:46:31;;;;;;;0.25;0.25;;;25.30;99.90;;;;;;5014038;28;20606;-71
2023/07/22 12:48:57;;;;;;;0.13;0.13;;;24.90;99.90;;;;;;5013150;28;20278;-72
2023/07/22 12:51:22;;;;;;;0.10;0.10;;;23.20;99.90;;;;;;5012423;28;20589;-70
2023/07/22 12:53:48;;;;;;;0.20;0.20;;;22.40;99.90;;;;;;5012544;28;20203;-72
2023/07/22 12:56:14;;;;;;;0.20;0.20;;;22.20;99.90;;;;;;5013576;28;20534;-73